CheckWX is a tool to help pilots better visualize weather data.  It is not intended as a substitute for an official pre-flight weather briefing.

08:35:32 UTC

CYWG METAR
Winnipeg / James Armstrong Richardson International Airport
Winnipeg, Canada
Current

36 mins ago

CYWG 220800Z 23004KT 15SM IC OVC080 M16/M18 A3027 RMK AS8 SLP276
Observed
Feb-22 @ 08:00 UTC
Wind
  • 230° at 4 KTS
Visibility
15 SM
Flight Rules
VFR
Conditions
Ice crystals
Cloud Levels
  • Overcast at 8,000' AGL
Temperature
-16°C / 3°F
Dewpoint
-18°C / -0°F
Humidity
85%
Altimeter
30.27" Hg
Pressure
1027.6 hPa
Previous

47 mins ago

CYWG 220749Z 23004KT 15SM IC OVC080 M15/M18 A3027 RMK AS8 SLP276
Observed
Feb-22 @ 07:49 UTC
Wind
  • 230° at 4 KTS
Visibility
15 SM
Flight Rules
VFR
Conditions
Ice crystals
Cloud Levels
  • Overcast at 8,000' AGL
Temperature
-15°C / 5°F
Dewpoint
-18°C / -0°F
Humidity
78%
Altimeter
30.27" Hg
Pressure
1027.6 hPa
Previous

2 hours ago

CYWG 220700Z 24005KT 12SM -SN OVC070 M15/M18 A3028 RMK AS8 SLP277
Observed
Feb-22 @ 07:00 UTC
Wind
  • 240° at 5 KTS
Visibility
12 SM
Flight Rules
VFR
Conditions
Light Snow
Cloud Levels
  • Overcast at 7,000' AGL
Temperature
-15°C / 5°F
Dewpoint
-18°C / -0°F
Humidity
78%
Altimeter
30.28" Hg
Pressure
1027.7 hPa